createdAt,value
2023-03-15T00:02:12.278Z,100.00
2023-03-15T00:04:39.120Z,100.00
2023-03-15T00:07:06.003Z,100.00
2023-03-15T00:09:32.772Z,100.00
2023-03-15T00:11:59.846Z,100.00
2023-03-15T00:14:26.639Z,100.00
2023-03-15T00:16:54.787Z,100.00
2023-03-15T00:19:21.715Z,100.00
2023-03-15T00:21:49.619Z,100.00
2023-03-15T00:24:16.382Z,100.00
2023-03-15T00:26:43.195Z,100.00
2023-03-15T00:29:10.098Z,100.00
2023-03-15T00:31:36.995Z,100.00
2023-03-15T00:34:04.807Z,100.00
2023-03-15T00:36:32.844Z,100.00
2023-03-15T00:38:59.779Z,100.00
2023-03-15T00:41:26.642Z,100.00
2023-03-15T00:43:54.217Z,100.00
2023-03-15T00:46:21.173Z,100.00
2023-03-15T00:48:50.854Z,100.00
2023-03-15T00:51:22.459Z,100.00
2023-03-15T00:53:51.879Z,100.00
2023-03-15T00:56:27.555Z,100.00
2023-03-15T00:58:54.375Z,100.00
2023-03-15T01:01:30.121Z,100.00
2023-03-15T01:03:57.490Z,100.00
2023-03-15T01:06:28.257Z,100.00
2023-03-15T01:08:56.748Z,100.00
2023-03-15T01:11:27.658Z,100.00
2023-03-15T01:13:59.020Z,100.00
2023-03-15T01:16:27.970Z,100.00
2023-03-15T01:18:55.534Z,100.00
2023-03-15T01:21:24.258Z,100.00
2023-03-15T01:23:52.083Z,100.00
2023-03-15T01:26:20.310Z,100.00
2023-03-15T01:28:48.134Z,100.00
2023-03-15T01:31:25.817Z,100.00
2023-03-15T01:33:54.211Z,100.00
2023-03-15T01:36:21.976Z,100.00
2023-03-15T01:38:52.283Z,100.00
2023-03-15T01:41:19.902Z,100.00
2023-03-15T01:43:49.518Z,100.00
2023-03-15T01:46:29.892Z,100.00
2023-03-15T01:49:19.711Z,100.00
2023-03-15T01:52:13.028Z,100.00
2023-03-15T01:54:49.699Z,100.00
2023-03-15T01:57:43.171Z,100.00
2023-03-15T02:00:15.245Z,100.00
2023-03-15T02:03:21.434Z,100.00
2023-03-15T02:05:56.533Z,100.00
2023-03-15T02:08:32.722Z,100.00
2023-03-15T02:11:04.504Z,100.00
2023-03-15T02:13:34.658Z,100.00
2023-03-15T02:16:06.724Z,100.00
2023-03-15T02:18:35.733Z,100.00
2023-03-15T02:21:33.220Z,100.00
2023-03-15T02:24:35.724Z,100.00
2023-03-15T02:27:03.599Z,100.00
2023-03-15T02:29:31.100Z,100.00
2023-03-15T02:31:58.717Z,100.00
2023-03-15T02:34:25.905Z,100.00
2023-03-15T02:36:54.093Z,100.00
2023-03-15T02:39:23.250Z,100.00
2023-03-15T02:41:58.810Z,100.00
2023-03-15T02:44:42.752Z,100.00
2023-03-15T02:47:26.905Z,100.00
2023-03-15T02:49:54.327Z,100.00
2023-03-15T02:52:22.857Z,100.00
2023-03-15T02:54:50.576Z,100.00
2023-03-15T02:57:19.449Z,100.00
2023-03-15T02:59:46.702Z,100.00
2023-03-15T03:02:13.841Z,100.00
2023-03-15T03:04:41.562Z,100.00
2023-03-15T03:07:08.520Z,100.00
2023-03-15T03:09:35.469Z,100.00
2023-03-15T03:12:02.269Z,100.00
2023-03-15T03:14:29.099Z,100.00
2023-03-15T03:16:55.874Z,100.00
2023-03-15T03:19:25.624Z,100.00
2023-03-15T03:21:54.242Z,100.00
2023-03-15T03:24:21.604Z,100.00
2023-03-15T03:26:48.403Z,100.00
2023-03-15T03:29:16.670Z,100.00
2023-03-15T03:31:44.719Z,100.00
2023-03-15T03:34:16.526Z,100.00
2023-03-15T03:36:43.819Z,100.00
2023-03-15T03:39:11.542Z,100.00
2023-03-15T03:41:38.402Z,100.00
2023-03-15T03:44:05.882Z,100.00
2023-03-15T03:46:32.752Z,100.00
2023-03-15T03:48:59.498Z,100.00
2023-03-15T03:51:26.227Z,100.00
2023-03-15T03:53:52.971Z,100.00
2023-03-15T03:56:19.711Z,100.00
2023-03-15T03:58:46.511Z,100.00
2023-03-15T04:01:13.254Z,100.00
2023-03-15T04:03:40.047Z,100.00
2023-03-15T04:06:06.892Z,100.00
2023-03-15T04:08:34.003Z,100.00
2023-03-15T04:11:03.864Z,100.00
2023-03-15T04:13:31.480Z,100.00
2023-03-15T04:15:58.616Z,100.00
2023-03-15T04:18:25.471Z,100.00
2023-03-15T04:20:54.508Z,100.00
2023-03-15T04:23:23.553Z,100.00
2023-03-15T04:25:58.003Z,100.00
2023-03-15T04:28:24.879Z,100.00
2023-03-15T04:30:52.054Z,100.00
2023-03-15T04:33:18.799Z,100.00
2023-03-15T04:35:45.680Z,100.00
2023-03-15T04:38:12.498Z,100.00
2023-03-15T04:40:39.358Z,100.00
2023-03-15T04:43:06.432Z,100.00
2023-03-15T04:45:33.640Z,100.00
2023-03-15T04:48:01.688Z,100.00
2023-03-15T04:50:30.305Z,100.00
2023-03-15T04:52:59.669Z,100.00
2023-03-15T04:55:26.657Z,100.00
2023-03-15T04:57:53.786Z,100.00
2023-03-15T05:00:21.666Z,100.00
2023-03-15T05:02:54.723Z,100.00
2023-03-15T05:05:23.819Z,100.00
2023-03-15T05:07:51.006Z,100.00
2023-03-15T05:10:18.261Z,100.00
2023-03-15T05:12:45.312Z,100.00
2023-03-15T05:15:12.813Z,100.00
2023-03-15T05:17:39.660Z,100.00
2023-03-15T05:20:11.821Z,100.00
2023-03-15T05:22:40.771Z,100.00
2023-03-15T05:25:10.360Z,100.00
2023-03-15T05:27:38.263Z,100.00
2023-03-15T05:30:07.943Z,100.00
2023-03-15T05:32:35.092Z,100.00
2023-03-15T05:35:02.782Z,100.00
2023-03-15T05:37:32.281Z,100.00
2023-03-15T05:40:00.341Z,100.00
2023-03-15T05:42:27.500Z,100.00
2023-03-15T05:44:55.368Z,100.00
2023-03-15T05:47:23.594Z,100.00
2023-03-15T05:49:50.589Z,100.00
2023-03-15T05:52:17.419Z,100.00
2023-03-15T05:54:45.147Z,100.00
2023-03-15T05:57:12.046Z,100.00
2023-03-15T05:59:38.813Z,100.00
2023-03-15T06:02:05.870Z,100.00
2023-03-15T06:04:32.720Z,100.00
2023-03-15T06:06:59.498Z,100.00
2023-03-15T06:09:26.391Z,100.00
2023-03-15T06:11:53.585Z,100.00
2023-03-15T06:14:20.550Z,100.00
2023-03-15T06:16:47.367Z,100.00
2023-03-15T06:19:14.296Z,100.00
2023-03-15T06:21:41.251Z,100.00
2023-03-15T06:24:08.496Z,100.00
2023-03-15T06:26:35.377Z,100.00
2023-03-15T06:29:02.336Z,100.00
2023-03-15T06:31:29.267Z,100.00
2023-03-15T06:33:56.298Z,100.00
2023-03-15T06:36:25.273Z,100.00
2023-03-15T06:38:54.467Z,100.00
2023-03-15T06:41:21.602Z,100.00
2023-03-15T06:43:48.450Z,100.00
2023-03-15T06:46:15.607Z,100.00
2023-03-15T06:48:42.433Z,100.00
2023-03-15T06:51:09.475Z,100.00
2023-03-15T06:53:36.292Z,100.00
2023-03-15T06:56:03.322Z,100.00
2023-03-15T06:58:30.186Z,100.00
2023-03-15T07:00:56.996Z,100.00
2023-03-15T07:03:23.877Z,100.00
2023-03-15T07:05:55.077Z,100.00
2023-03-15T07:08:25.271Z,100.00
2023-03-15T07:10:52.600Z,100.00
2023-03-15T07:13:20.375Z,100.00
2023-03-15T07:15:54.052Z,100.00
2023-03-15T07:18:21.185Z,100.00
2023-03-15T07:20:49.074Z,100.00
2023-03-15T07:23:16.000Z,100.00
2023-03-15T07:25:54.451Z,100.00
2023-03-15T07:28:23.774Z,100.00
2023-03-15T07:30:58.638Z,100.00
2023-03-15T07:33:28.057Z,99.43
2023-03-15T07:35:55.944Z,98.79
2023-03-15T07:38:31.009Z,97.03
2023-03-15T07:40:58.347Z,93.98
2023-03-15T07:43:25.241Z,91.14
2023-03-15T07:45:52.138Z,92.25
2023-03-15T07:48:19.173Z,94.42
2023-03-15T07:50:48.260Z,91.67
2023-03-15T07:53:15.496Z,90.23
2023-03-15T07:55:42.329Z,85.96
2023-03-15T07:58:09.090Z,87.66
2023-03-15T08:00:35.881Z,88.08
2023-03-15T08:03:02.873Z,86.04
2023-03-15T08:05:30.403Z,82.89
2023-03-15T08:07:57.350Z,82.09
2023-03-15T08:10:24.378Z,75.78
2023-03-15T08:12:51.455Z,72.49
2023-03-15T08:15:19.546Z,68.88
2023-03-15T08:17:48.636Z,69.33
2023-03-15T08:20:19.633Z,68.84
2023-03-15T08:22:49.160Z,65.93
2023-03-15T08:25:20.648Z,63.00
2023-03-15T08:27:48.606Z,62.11
2023-03-15T08:30:17.316Z,64.16
2023-03-15T08:32:47.116Z,63.65
2023-03-15T08:35:17.143Z,62.46
2023-03-15T08:37:47.757Z,58.98
2023-03-15T08:40:26.786Z,58.49
2023-03-15T08:42:54.319Z,57.80
2023-03-15T08:45:24.053Z,56.82
2023-03-15T08:48:00.858Z,55.09
2023-03-15T08:50:30.021Z,56.57
2023-03-15T08:52:56.810Z,55.42
2023-03-15T08:55:23.830Z,55.40
2023-03-15T08:57:50.773Z,55.38
2023-03-15T09:00:22.615Z,55.91
2023-03-15T09:02:54.229Z,55.61
2023-03-15T09:05:24.084Z,53.33
2023-03-15T09:07:53.064Z,53.75
2023-03-15T09:10:22.034Z,52.04
2023-03-15T09:12:53.784Z,52.19
2023-03-15T09:15:21.650Z,52.40
2023-03-15T09:17:53.051Z,52.73
2023-03-15T09:20:22.754Z,51.03
2023-03-15T09:22:58.262Z,50.93
2023-03-15T09:25:26.203Z,51.25
2023-03-15T09:27:54.061Z,51.78
2023-03-15T09:30:21.090Z,52.79
2023-03-15T09:32:48.280Z,52.84
2023-03-15T09:35:19.339Z,50.85
2023-03-15T09:37:49.173Z,51.33
2023-03-15T09:40:33.605Z,49.31
2023-03-15T09:43:06.326Z,47.62
2023-03-15T09:46:05.601Z,47.05
2023-03-15T09:49:05.090Z,47.78
2023-03-15T09:51:41.443Z,48.18
2023-03-15T09:54:17.087Z,48.16
2023-03-15T09:57:04.577Z,46.76
2023-03-15T09:59:49.077Z,50.43
2023-03-15T10:02:25.793Z,43.83
2023-03-15T10:05:01.596Z,43.56
2023-03-15T10:07:28.646Z,46.85
2023-03-15T10:09:58.824Z,43.09
2023-03-15T10:12:41.099Z,44.84
2023-03-15T10:15:56.806Z,46.35
2023-03-15T10:19:02.002Z,47.29
2023-03-15T10:21:53.601Z,46.22
2023-03-15T10:24:45.966Z,46.13
2023-03-15T10:27:43.634Z,45.12
2023-03-15T10:30:20.508Z,45.34
2023-03-15T10:33:01.809Z,44.54
2023-03-15T10:35:28.920Z,46.17
2023-03-15T10:37:56.214Z,45.66
2023-03-15T10:40:46.174Z,49.07
2023-03-15T10:43:25.487Z,47.45
2023-03-15T10:46:09.277Z,47.98
2023-03-15T10:49:08.501Z,48.68
2023-03-15T10:51:43.673Z,49.90
2023-03-15T10:54:25.431Z,50.72
2023-03-15T10:57:01.965Z,51.75
2023-03-15T10:59:34.313Z,52.05
2023-03-15T11:02:27.714Z,52.41
2023-03-15T11:05:12.321Z,52.79
2023-03-15T11:07:59.009Z,56.11
2023-03-15T11:10:33.217Z,54.63
2023-03-15T11:13:22.557Z,54.81
2023-03-15T11:16:04.500Z,55.07
2023-03-15T11:18:47.236Z,54.54
2023-03-15T11:21:18.623Z,53.73
2023-03-15T11:23:51.541Z,53.41
2023-03-15T11:26:33.161Z,53.91
2023-03-15T11:29:26.879Z,53.19
2023-03-15T11:31:55.830Z,53.35
2023-03-15T11:34:31.213Z,53.05
2023-03-15T11:37:08.898Z,52.97
2023-03-15T11:40:11.223Z,53.60
2023-03-15T11:43:08.215Z,53.68
2023-03-15T11:46:00.159Z,52.96
2023-03-15T11:48:42.471Z,53.52
2023-03-15T11:51:13.245Z,54.34
2023-03-15T11:54:16.352Z,55.53
2023-03-15T11:57:03.734Z,55.27
2023-03-15T11:59:37.953Z,55.48
2023-03-15T12:02:11.284Z,55.57
2023-03-15T12:04:46.600Z,55.72
2023-03-15T12:07:24.501Z,55.53
2023-03-15T12:10:04.521Z,54.81
2023-03-15T12:12:33.344Z,56.42
2023-03-15T12:15:20.962Z,60.58
2023-03-15T12:18:06.761Z,66.09
2023-03-15T12:20:45.870Z,71.67
2023-03-15T12:23:18.473Z,78.72
2023-03-15T12:26:07.661Z,83.58
2023-03-15T12:28:50.485Z,83.65
2023-03-15T12:31:18.274Z,84.21
2023-03-15T12:33:58.378Z,84.06
2023-03-15T12:36:39.618Z,85.35
2023-03-15T12:39:15.504Z,84.32
2023-03-15T12:41:49.195Z,85.50
2023-03-15T12:44:21.895Z,82.70
2023-03-15T12:46:48.671Z,84.92
2023-03-15T12:49:24.605Z,84.54
2023-03-15T12:52:16.493Z,84.64
2023-03-15T12:55:05.834Z,83.97
2023-03-15T12:57:45.281Z,84.61
2023-03-15T13:00:21.182Z,86.02
2023-03-15T13:03:19.043Z,86.50
2023-03-15T13:06:21.523Z,88.50
2023-03-15T13:09:42.182Z,91.82
2023-03-15T13:12:20.567Z,93.85
2023-03-15T13:14:50.039Z,94.59
2023-03-15T13:17:46.655Z,99.13
2023-03-15T13:20:34.862Z,100.00
2023-03-15T13:23:22.813Z,100.00
2023-03-15T13:26:14.008Z,100.00
2023-03-15T13:28:48.288Z,100.00
2023-03-15T13:31:25.273Z,100.00
2023-03-15T13:33:57.415Z,100.00
2023-03-15T13:36:38.542Z,100.00
2023-03-15T13:39:17.316Z,99.53
2023-03-15T13:41:44.248Z,100.00
2023-03-15T13:44:21.969Z,94.74
2023-03-15T13:46:50.918Z,87.15
2023-03-15T13:49:20.258Z,90.87
2023-03-15T13:51:50.533Z,90.23
2023-03-15T13:54:34.041Z,85.77
2023-03-15T13:57:07.245Z,84.15
2023-03-15T14:00:00.176Z,80.22
2023-03-15T14:02:52.490Z,83.80
2023-03-15T14:05:27.455Z,87.70
2023-03-15T14:08:07.308Z,87.46
2023-03-15T14:10:38.978Z,86.87
2023-03-15T14:13:27.962Z,89.02
2023-03-15T14:16:05.460Z,91.57
2023-03-15T14:18:38.553Z,92.75
2023-03-15T14:21:19.860Z,97.36
2023-03-15T14:23:49.357Z,99.49
2023-03-15T14:26:22.655Z,100.00
2023-03-15T14:29:16.416Z,100.00
2023-03-15T14:31:50.754Z,100.00
2023-03-15T14:34:44.777Z,100.00
2023-03-15T14:37:42.141Z,100.00
2023-03-15T14:40:37.271Z,100.00
2023-03-15T14:43:07.486Z,100.00
2023-03-15T14:45:38.747Z,100.00
2023-03-15T14:48:13.822Z,100.00
2023-03-15T14:50:44.232Z,100.00
2023-03-15T14:53:18.905Z,100.00
2023-03-15T14:55:45.834Z,100.00
2023-03-15T14:58:21.644Z,100.00
2023-03-15T15:00:55.342Z,100.00
2023-03-15T15:03:46.366Z,100.00
2023-03-15T15:06:15.830Z,100.00
2023-03-15T15:08:47.523Z,100.00
2023-03-15T15:11:15.908Z,100.00
2023-03-15T15:13:43.133Z,100.00
2023-03-15T15:16:10.259Z,100.00
2023-03-15T15:18:38.217Z,100.00
2023-03-15T15:21:13.192Z,100.00
2023-03-15T15:23:57.497Z,100.00
2023-03-15T15:26:29.944Z,100.00
2023-03-15T15:28:57.935Z,100.00
2023-03-15T15:31:28.286Z,100.00
2023-03-15T15:33:56.662Z,100.00
2023-03-15T15:36:37.858Z,100.00
2023-03-15T15:39:18.028Z,100.00
2023-03-15T15:41:44.873Z,100.00
2023-03-15T15:44:17.635Z,100.00
2023-03-15T15:46:44.461Z,100.00
2023-03-15T15:49:11.370Z,100.00
2023-03-15T15:51:49.618Z,100.00
2023-03-15T15:54:26.577Z,100.00
2023-03-15T15:56:57.687Z,100.00
2023-03-15T15:59:25.698Z,100.00
2023-03-15T16:02:02.749Z,100.00
2023-03-15T16:04:30.906Z,100.00
2023-03-15T16:07:04.269Z,100.00
2023-03-15T16:09:37.155Z,100.00
2023-03-15T16:12:13.722Z,100.00
2023-03-15T16:14:41.788Z,100.00
2023-03-15T16:17:22.432Z,100.00
2023-03-15T16:19:51.009Z,100.00
2023-03-15T16:22:21.655Z,100.00
2023-03-15T16:24:53.342Z,100.00
2023-03-15T16:27:26.876Z,100.00
2023-03-15T16:29:55.868Z,100.00
2023-03-15T16:32:40.993Z,100.00
2023-03-15T16:35:15.288Z,100.00
2023-03-15T16:37:43.402Z,100.00
2023-03-15T16:40:32.764Z,100.00
2023-03-15T16:43:00.871Z,100.00
2023-03-15T16:45:28.571Z,100.00
2023-03-15T16:47:56.418Z,100.00
2023-03-15T16:50:24.203Z,100.00
2023-03-15T16:52:56.677Z,100.00
2023-03-15T16:55:32.916Z,100.00
2023-03-15T16:58:14.231Z,100.00
2023-03-15T17:00:44.276Z,100.00
2023-03-15T17:03:12.596Z,100.00
2023-03-15T17:05:41.553Z,100.00
2023-03-15T17:08:16.154Z,100.00
2023-03-15T17:10:44.265Z,100.00
2023-03-15T17:13:17.202Z,100.00
2023-03-15T17:15:44.427Z,100.00
2023-03-15T17:18:19.197Z,100.00
2023-03-15T17:20:49.376Z,100.00
2023-03-15T17:23:17.422Z,100.00
2023-03-15T17:25:44.316Z,100.00
2023-03-15T17:28:11.229Z,100.00
2023-03-15T17:30:38.333Z,100.00
2023-03-15T17:33:06.875Z,100.00
2023-03-15T17:35:39.694Z,100.00
2023-03-15T17:38:14.722Z,100.00
2023-03-15T17:40:42.796Z,100.00
2023-03-15T17:43:15.639Z,100.00
2023-03-15T17:45:43.118Z,100.00
2023-03-15T17:48:10.416Z,100.00
2023-03-15T17:50:38.162Z,100.00
2023-03-15T17:53:16.469Z,100.00
2023-03-15T17:55:44.401Z,100.00
2023-03-15T17:58:20.626Z,100.00
2023-03-15T18:00:49.993Z,100.00
2023-03-15T18:03:18.029Z,100.00
2023-03-15T18:05:45.616Z,100.00
2023-03-15T18:08:19.176Z,100.00
2023-03-15T18:10:47.792Z,100.00
2023-03-15T18:13:25.774Z,100.00
2023-03-15T18:15:55.788Z,100.00
2023-03-15T18:18:22.711Z,100.00
2023-03-15T18:20:49.693Z,100.00
2023-03-15T18:23:18.011Z,100.00
2023-03-15T18:25:45.029Z,100.00
2023-03-15T18:28:12.154Z,100.00
2023-03-15T18:30:39.629Z,100.00
2023-03-15T18:33:07.194Z,100.00
2023-03-15T18:35:36.386Z,100.00
2023-03-15T18:38:04.900Z,100.00
2023-03-15T18:40:33.724Z,100.00
2023-03-15T18:43:01.451Z,100.00
2023-03-15T18:45:32.406Z,100.00
2023-03-15T18:47:59.928Z,100.00
2023-03-15T18:50:28.421Z,100.00
2023-03-15T18:52:56.691Z,100.00
2023-03-15T18:55:24.717Z,100.00
2023-03-15T18:57:55.038Z,100.00
2023-03-15T19:00:27.122Z,100.00
2023-03-15T19:02:58.148Z,100.00
2023-03-15T19:05:26.713Z,100.00
2023-03-15T19:07:53.761Z,100.00
2023-03-15T19:10:23.010Z,100.00
2023-03-15T19:12:53.114Z,100.00
2023-03-15T19:15:22.287Z,100.00
2023-03-15T19:17:52.577Z,100.00
2023-03-15T19:20:21.835Z,100.00
2023-03-15T19:22:51.112Z,100.00
2023-03-15T19:25:18.530Z,100.00
2023-03-15T19:27:45.819Z,100.00
2023-03-15T19:30:18.879Z,100.00
2023-03-15T19:32:48.009Z,100.00
2023-03-15T19:35:16.596Z,100.00
2023-03-15T19:37:44.480Z,100.00
2023-03-15T19:40:13.945Z,100.00
2023-03-15T19:42:41.600Z,100.00
2023-03-15T19:45:09.869Z,100.00
2023-03-15T19:47:36.686Z,100.00
2023-03-15T19:50:05.720Z,100.00
2023-03-15T19:52:33.440Z,100.00
2023-03-15T19:55:04.097Z,100.00
2023-03-15T19:57:30.890Z,100.00
2023-03-15T19:59:57.927Z,100.00
2023-03-15T20:02:25.822Z,100.00
2023-03-15T20:04:54.027Z,100.00
2023-03-15T20:07:20.863Z,100.00
2023-03-15T20:09:47.725Z,100.00
2023-03-15T20:12:14.610Z,100.00
2023-03-15T20:14:41.778Z,100.00
2023-03-15T20:17:08.758Z,100.00
2023-03-15T20:19:36.155Z,100.00
2023-03-15T20:22:06.240Z,100.00
2023-03-15T20:24:33.521Z,100.00
2023-03-15T20:27:00.747Z,100.00
2023-03-15T20:29:27.886Z,100.00
2023-03-15T20:31:54.856Z,100.00
2023-03-15T20:34:22.235Z,100.00
2023-03-15T20:36:49.322Z,100.00
2023-03-15T20:39:18.356Z,100.00
2023-03-15T20:41:45.260Z,100.00
2023-03-15T20:44:12.819Z,100.00
2023-03-15T20:46:39.971Z,100.00
2023-03-15T20:49:07.078Z,100.00
2023-03-15T20:51:34.674Z,100.00
2023-03-15T20:54:01.747Z,100.00
2023-03-15T20:56:28.734Z,100.00
2023-03-15T20:58:56.281Z,100.00
2023-03-15T21:01:23.117Z,100.00
2023-03-15T21:03:50.348Z,100.00
2023-03-15T21:06:17.407Z,100.00
2023-03-15T21:08:46.003Z,100.00
2023-03-15T21:11:15.772Z,100.00
2023-03-15T21:13:42.559Z,100.00
2023-03-15T21:16:12.332Z,100.00
2023-03-15T21:18:39.394Z,100.00
2023-03-15T21:21:07.813Z,100.00
2023-03-15T21:23:36.005Z,100.00
2023-03-15T21:26:07.250Z,100.00
2023-03-15T21:28:34.395Z,100.00
2023-03-15T21:31:01.473Z,100.00
2023-03-15T21:33:30.907Z,100.00
2023-03-15T21:35:59.514Z,100.00
2023-03-15T21:38:32.222Z,100.00
2023-03-15T21:40:59.956Z,100.00
2023-03-15T21:43:30.786Z,100.00
2023-03-15T21:46:11.905Z,100.00
2023-03-15T21:48:39.026Z,100.00
2023-03-15T21:51:07.571Z,100.00
2023-03-15T21:53:36.242Z,100.00
2023-03-15T21:56:04.322Z,100.00
2023-03-15T21:58:31.880Z,100.00
2023-03-15T22:01:05.842Z,100.00
2023-03-15T22:03:35.709Z,100.00
2023-03-15T22:06:03.052Z,100.00
2023-03-15T22:08:29.942Z,100.00
2023-03-15T22:10:58.621Z,100.00
2023-03-15T22:13:26.647Z,100.00
2023-03-15T22:15:56.607Z,100.00
2023-03-15T22:18:23.857Z,100.00
2023-03-15T22:20:51.510Z,100.00
2023-03-15T22:23:22.725Z,100.00
2023-03-15T22:25:52.836Z,100.00
2023-03-15T22:28:22.179Z,100.00
2023-03-15T22:30:49.970Z,100.00
2023-03-15T22:33:19.281Z,100.00
2023-03-15T22:35:46.182Z,100.00
2023-03-15T22:38:14.116Z,100.00
2023-03-15T22:40:41.282Z,100.00
2023-03-15T22:43:09.013Z,100.00
2023-03-15T22:45:37.544Z,100.00
2023-03-15T22:48:04.685Z,100.00
2023-03-15T22:50:32.140Z,100.00
2023-03-15T22:52:58.917Z,100.00
2023-03-15T22:55:26.218Z,100.00
2023-03-15T22:57:54.125Z,100.00
2023-03-15T23:00:23.449Z,100.00
2023-03-15T23:02:53.103Z,100.00
2023-03-15T23:05:20.135Z,100.00
2023-03-15T23:07:47.602Z,100.00
2023-03-15T23:10:15.174Z,100.00
2023-03-15T23:12:42.187Z,100.00
2023-03-15T23:15:10.384Z,100.00
2023-03-15T23:17:37.237Z,100.00
2023-03-15T23:20:07.104Z,100.00
2023-03-15T23:22:34.085Z,100.00
2023-03-15T23:25:01.396Z,100.00
2023-03-15T23:27:28.559Z,100.00
2023-03-15T23:29:55.508Z,100.00
2023-03-15T23:32:25.041Z,100.00
2023-03-15T23:34:53.620Z,100.00
2023-03-15T23:37:24.246Z,100.00
2023-03-15T23:39:53.328Z,100.00
2023-03-15T23:42:25.706Z,100.00
2023-03-15T23:44:53.679Z,100.00
2023-03-15T23:47:22.894Z,100.00
2023-03-15T23:49:51.151Z,100.00
2023-03-15T23:52:19.044Z,100.00
2023-03-15T23:54:45.961Z,100.00
2023-03-15T23:57:15.974Z,100.00
2023-03-15T23:59:43.340Z,100.00
